Time;durP1;ratioP1;P1;durP2;ratioP2;P2;SDS_P1;SDS_P2;PMS_P1;PMS_P2;Temp;Humidity;BMP_temperature;BMP_pressure;BME280_temperature;BME280_humidity;BME280_pressure;Samples;Min_cycle;Max_cycle;Signal;HPM_P1;HPM_P2
2024/01/06 00:01:33;;;;;;;289.50;96.35;;;;;;;7.86;nan;99373.28;5069041;28;20117;-69
2024/01/06 00:04:02;;;;;;;294.08;96.15;;;;;;;7.96;nan;99366.06;5069309;28;20100;-68
2024/01/06 00:06:32;;;;;;;293.30;95.13;;;;;;;8.01;nan;99371.66;5068095;28;20088;-68
2024/01/06 00:09:03;;;;;;;279.90;92.45;;;;;;;7.87;nan;99371.47;5062033;28;20055;-67
2024/01/06 00:11:33;;;;;;;278.40;93.03;;;;;;;7.89;nan;99362.41;5064281;28;20496;-69
2024/01/06 00:14:02;;;;;;;257.40;90.22;;;;;;;7.97;nan;99366.88;5046334;28;20083;-69
2024/01/06 00:16:32;;;;;;;277.05;90.43;;;;;;;7.92;nan;99364.72;5064718;28;20041;-68
2024/01/06 00:19:02;;;;;;;274.15;89.03;;;;;;;7.85;nan;99366.34;5063754;28;20502;-68
2024/01/06 00:21:31;;;;;;;271.83;91.20;;;;;;;7.84;nan;99377.88;5073294;28;20064;-69
2024/01/06 00:24:01;;;;;;;269.85;90.85;;;;;;;7.95;nan;99376.78;5073330;28;20157;-70
2024/01/06 00:26:30;;;;;;;267.48;89.78;;;;;;;7.73;nan;99380.78;5073773;28;20778;-70
2024/01/06 00:29:00;;;;;;;262.17;89.72;;;;;;;7.88;nan;99388.91;5075428;28;20072;-70
2024/01/06 00:31:29;;;;;;;269.52;90.10;;;;;;;7.82;nan;99392.22;5073098;28;20147;-70
2024/01/06 00:33:58;;;;;;;250.00;87.93;;;;;;;7.99;nan;99397.38;5072575;28;20148;-72
2024/01/06 00:36:28;;;;;;;266.63;86.97;;;;;;;7.98;nan;99402.81;5066674;28;20045;-70
2024/01/06 00:38:58;;;;;;;275.42;92.20;;;;;;;7.86;nan;99404.91;5068108;28;20637;-71
2024/01/06 00:41:27;;;;;;;269.90;86.00;;;;;;;7.76;nan;99408.66;5045360;28;20471;-69
2024/01/06 00:43:57;;;;;;;257.20;85.03;;;;;;;7.72;nan;99405.50;5065854;28;20154;-69
2024/01/06 00:46:27;;;;;;;254.55;86.13;;;;;;;7.84;nan;99406.88;5065709;28;20084;-68
2024/01/06 00:48:56;;;;;;;275.70;86.82;;;;;;;7.99;nan;99409.75;5047793;28;20044;-70
2024/01/06 00:51:26;;;;;;;247.63;86.70;;;;;;;7.92;nan;99417.44;5066720;28;20048;-70
2024/01/06 00:53:56;;;;;;;261.40;87.97;;;;;;;7.76;nan;99421.81;5068423;28;20679;-68
2024/01/06 00:56:27;;;;;;;257.55;86.13;;;;;;;7.99;nan;99420.31;5075567;28;20056;-72
2024/01/06 00:58:56;;;;;;;239.48;83.80;;;;;;;7.82;nan;99415.94;5073161;28;20049;-71
2024/01/06 01:01:26;;;;;;;245.10;82.88;;;;;;;7.76;nan;99420.03;5072541;28;20067;-71
2024/01/06 01:03:55;;;;;;;241.15;83.50;;;;;;;7.64;nan;99419.47;5068678;28;20139;-71
2024/01/06 01:06:24;;;;;;;236.35;78.53;;;;;;;7.74;nan;99421.19;5078292;28;20436;-71
2024/01/06 01:08:54;;;;;;;245.23;83.53;;;;;;;7.73;nan;99417.72;5075685;28;20045;-72
2024/01/06 01:11:24;;;;;;;246.98;82.22;;;;;;;7.63;nan;99424.91;5061369;28;20040;-71
2024/01/06 01:13:53;;;;;;;254.88;86.82;;;;;;;7.89;nan;99425.69;5074943;28;20132;-72
2024/01/06 01:16:23;;;;;;;233.98;79.40;;;;;;;7.70;nan;99427.75;5075243;28;20083;-71
2024/01/06 01:18:53;;;;;;;230.02;80.93;;;;;;;7.60;nan;99435.75;5067113;28;20123;-71
2024/01/06 01:21:23;;;;;;;240.23;80.88;;;;;;;7.65;nan;99436.94;5075760;28;20469;-71
2024/01/06 01:23:53;;;;;;;245.57;81.53;;;;;;;7.71;nan;99432.84;5081049;28;20048;-71
2024/01/06 01:26:22;;;;;;;240.77;80.05;;;;;;;7.88;nan;99441.66;5078649;28;20427;-71
2024/01/06 01:28:52;;;;;;;253.68;83.47;;;;;;;8.06;nan;99451.16;5076749;28;20048;-72
2024/01/06 01:31:21;;;;;;;235.75;78.10;;;;;;;8.01;nan;99452.63;5075789;28;20382;-71
2024/01/06 01:33:51;;;;;;;239.43;81.47;;;;;;;7.87;nan;99458.50;5074159;28;20044;-71
2024/01/06 01:36:21;;;;;;;237.23;80.55;;;;;;;7.94;nan;99457.69;5075031;28;20055;-72
2024/01/06 01:38:51;;;;;;;252.57;81.43;;;;;;;8.16;nan;99458.13;5071518;28;20355;-72
2024/01/06 01:41:20;;;;;;;225.02;78.47;;;;;;;8.00;nan;99467.63;5064014;28;20063;-72
2024/01/06 01:43:57;;;;;;;255.18;82.40;;;;;;;7.97;nan;99467.09;5064978;28;20490;-73
2024/01/06 01:46:29;;;;;;;232.98;78.35;;;;;;;7.85;nan;99471.81;5049518;28;20060;-72
2024/01/06 01:49:01;;;;;;;243.35;80.22;;;;;;;7.89;nan;99477.59;5067300;28;20040;-72
2024/01/06 01:51:34;;;;;;;238.63;82.37;;;;;;;7.88;nan;99468.88;5059431;28;20839;-71
2024/01/06 01:54:06;;;;;;;241.95;85.05;;;;;;;8.08;nan;99469.47;5064120;28;20052;-71
2024/01/06 01:56:38;;;;;;;258.50;82.90;;;;;;;7.93;nan;99460.47;5063322;28;20604;-72
2024/01/06 01:59:12;;;;;;;233.82;77.82;;;;;;;7.81;nan;99457.28;5065370;28;20076;-71
2024/01/06 02:01:42;;;;;;;227.60;75.32;;;;;;;7.88;nan;99460.13;5064599;28;20044;-72
2024/01/06 02:04:11;;;;;;;241.85;79.22;;;;;;;7.95;nan;99472.53;5065355;28;20045;-72
2024/01/06 02:06:40;;;;;;;220.32;76.72;;;;;;;8.15;nan;99470.47;5065520;28;20260;-73
2024/01/06 02:09:11;;;;;;;216.77;75.10;;;;;;;7.97;nan;99478.47;5065263;28;20068;-72
2024/01/06 02:11:40;;;;;;;216.60;76.70;;;;;;;7.92;nan;99470.19;5061656;28;20056;-72
2024/01/06 02:14:09;;;;;;;220.85;74.15;;;;;;;7.95;nan;99471.72;5048448;28;20057;-71
2024/01/06 02:16:39;;;;;;;232.02;79.43;;;;;;;7.90;nan;99482.72;5066873;28;20055;-71
2024/01/06 02:19:11;;;;;;;217.15;79.05;;;;;;;7.97;nan;99481.09;5059678;28;20117;-72
2024/01/06 02:21:43;;;;;;;224.20;77.70;;;;;;;7.97;nan;99480.28;5066017;28;20126;-72
2024/01/06 02:24:13;;;;;;;227.60;77.20;;;;;;;8.07;nan;99492.38;5066138;28;20355;-72
2024/01/06 02:26:42;;;;;;;245.38;78.70;;;;;;;7.91;nan;99497.56;5066010;28;20300;-72
2024/01/06 02:29:12;;;;;;;235.65;76.88;;;;;;;8.11;nan;99511.34;5062719;28;20086;-72
2024/01/06 02:31:42;;;;;;;223.10;74.22;;;;;;;8.23;nan;99514.56;5063987;28;20044;-72
2024/01/06 02:34:11;;;;;;;230.48;79.97;;;;;;;8.06;nan;99513.63;5028523;28;20080;-71
2024/01/06 02:36:41;;;;;;;231.50;78.82;;;;;;;8.05;nan;99519.91;5043775;28;20500;-72
2024/01/06 02:39:10;;;;;;;229.05;77.43;;;;;;;8.03;nan;99529.78;5034575;28;20451;-72
2024/01/06 02:41:40;;;;;;;214.27;75.60;;;;;;;8.04;nan;99536.72;5049869;28;20041;-71
2024/01/06 02:44:09;;;;;;;241.07;78.03;;;;;;;7.98;nan;99538.16;5057503;28;20639;-72
2024/01/06 02:46:40;;;;;;;219.13;74.75;;;;;;;7.85;nan;99537.75;5048175;28;20045;-71
2024/01/06 02:49:10;;;;;;;213.77;72.30;;;;;;;7.73;nan;99544.25;5059005;28;20137;-71
2024/01/06 02:51:39;;;;;;;202.63;73.60;;;;;;;7.70;nan;99544.53;5048887;28;20103;-71
2024/01/06 02:54:09;;;;;;;216.65;76.00;;;;;;;7.62;nan;99555.88;5037997;28;20049;-72
2024/01/06 02:56:38;;;;;;;227.07;79.25;;;;;;;7.74;nan;99553.00;5057529;28;20108;-72
2024/01/06 02:59:08;;;;;;;215.70;74.40;;;;;;;7.67;nan;99560.69;5065081;28;20492;-71
2024/01/06 03:01:37;;;;;;;225.10;76.00;;;;;;;7.77;nan;99557.97;5047656;28;20041;-72
2024/01/06 03:04:08;;;;;;;220.85;73.43;;;;;;;7.88;nan;99562.97;5050048;28;20045;-72
2024/01/06 03:06:38;;;;;;;218.60;76.32;;;;;;;8.04;nan;99574.47;5056670;28;20036;-72
2024/01/06 03:09:07;;;;;;;235.07;78.22;;;;;;;7.93;nan;99584.44;5064528;28;20144;-71
2024/01/06 03:11:37;;;;;;;214.70;74.45;;;;;;;7.99;nan;99584.66;5065069;28;20416;-72
2024/01/06 03:14:06;;;;;;;221.25;75.57;;;;;;;8.25;nan;99581.19;5064837;28;20041;-72
2024/01/06 03:16:36;;;;;;;217.65;77.93;;;;;;;8.41;nan;99587.41;5047724;28;20666;-72
2024/01/06 03:19:05;;;;;;;230.07;77.88;;;;;;;8.28;nan;99584.34;5065053;28;20746;-72
2024/01/06 03:21:36;;;;;;;225.18;79.40;;;;;;;8.23;nan;99602.44;5058914;28;20048;-71
2024/01/06 03:24:11;;;;;;;211.75;75.43;;;;;;;8.22;nan;99602.63;5064100;28;20049;-71
2024/01/06 03:26:42;;;;;;;221.70;74.63;;;;;;;8.10;nan;99607.31;5064946;28;20052;-72
2024/01/06 03:29:11;;;;;;;229.40;76.43;;;;;;;8.24;nan;99606.75;5046362;28;20057;-70
2024/01/06 03:31:45;;;;;;;214.70;73.18;;;;;;;8.09;nan;99617.06;5061003;28;20048;-71
2024/01/06 03:34:15;;;;;;;225.25;75.15;;;;;;;8.14;nan;99622.66;5052470;28;20076;-71
2024/01/06 03:36:44;;;;;;;206.50;72.60;;;;;;;8.50;nan;99626.06;5064648;28;20047;-71
2024/01/06 03:39:14;;;;;;;226.30;77.85;;;;;;;8.38;nan;99629.97;5064219;28;20048;-71
2024/01/06 03:41:43;;;;;;;220.90;76.05;;;;;;;8.36;nan;99631.13;5064946;28;20062;-72
2024/01/06 03:44:13;;;;;;;230.60;76.35;;;;;;;8.12;nan;99637.84;5051458;28;20041;-71
2024/01/06 03:46:42;;;;;;;219.13;74.93;;;;;;;8.11;nan;99638.81;5053862;28;20539;-72
2024/01/06 03:49:12;;;;;;;230.88;77.75;;;;;;;8.39;nan;99650.09;5061090;28;20072;-71
2024/01/06 03:51:41;;;;;;;226.60;79.93;;;;;;;8.17;nan;99647.94;5051481;28;20482;-72
2024/01/06 03:54:11;;;;;;;223.82;74.63;;;;;;;8.17;nan;99647.09;5063454;28;20082;-72
2024/01/06 03:56:40;;;;;;;237.18;78.53;;;;;;;8.14;nan;99651.69;5058576;28;20052;-71
2024/01/06 03:59:10;;;;;;;232.75;77.03;;;;;;;8.28;nan;99655.59;5026337;28;20044;-70
2024/01/06 04:01:39;;;;;;;238.00;78.68;;;;;;;8.28;nan;99654.75;5058470;28;20044;-71
2024/01/06 04:04:08;;;;;;;248.65;78.57;;;;;;;8.22;nan;99650.13;5062860;28;20052;-71
2024/01/06 04:06:38;;;;;;;227.32;80.55;;;;;;;8.11;nan;99649.38;5058974;28;20055;-70
2024/01/06 04:09:09;;;;;;;223.98;79.47;;;;;;;8.23;nan;99662.34;5054568;28;20453;-66
2024/01/06 04:11:38;;;;;;;225.88;76.75;;;;;;;8.22;nan;99652.75;5059364;28;20072;-66
2024/01/06 04:14:07;;;;;;;221.63;79.15;;;;;;;8.34;nan;99655.00;5030342;28;20044;-67
2024/01/06 04:16:37;;;;;;;235.65;78.47;;;;;;;8.28;nan;99646.84;5064366;28;20040;-66
2024/01/06 04:19:07;;;;;;;224.88;77.40;;;;;;;8.32;nan;99654.31;5056271;28;20059;-66
2024/01/06 04:21:37;;;;;;;232.52;77.70;;;;;;;8.43;nan;99663.81;5054807;28;20059;-66
2024/01/06 04:24:06;;;;;;;243.93;83.60;;;;;;;8.40;nan;99664.97;5063431;28;20053;-66
2024/01/06 04:26:36;;;;;;;259.15;82.03;;;;;;;8.55;nan;99666.03;5056291;28;20044;-66
2024/01/06 04:29:05;;;;;;;233.35;78.82;;;;;;;8.34;nan;99678.75;5054788;28;20052;-67
2024/01/06 04:31:35;;;;;;;206.10;73.18;;;;;;;8.36;nan;99683.91;5061658;28;20727;-67
2024/01/06 04:34:04;;;;;;;233.30;78.40;;;;;;;8.31;nan;99691.44;5067225;28;20056;-68
2024/01/06 04:36:34;;;;;;;228.73;78.90;;;;;;;8.59;nan;99687.66;5067397;28;20045;-66
2024/01/06 04:39:03;;;;;;;239.38;78.35;;;;;;;8.62;nan;99691.81;5073316;28;20144;-66
2024/01/06 04:41:32;;;;;;;213.63;77.10;;;;;;;8.57;nan;99692.28;5070403;28;20566;-66
2024/01/06 04:44:02;;;;;;;225.52;79.53;;;;;;;8.56;nan;99696.75;5070632;28;20123;-66
2024/01/06 04:46:32;;;;;;;237.50;76.95;;;;;;;8.38;nan;99693.31;5067729;28;20055;-66
2024/01/06 04:49:02;;;;;;;219.82;76.93;;;;;;;8.56;nan;99690.63;5056115;28;20036;-68
2024/01/06 04:51:31;;;;;;;221.32;77.00;;;;;;;8.52;nan;99689.28;5070018;28;20119;-67
2024/01/06 04:54:01;;;;;;;215.27;74.00;;;;;;;8.80;nan;99697.88;5049657;28;20403;-67
2024/01/06 04:56:30;;;;;;;207.63;74.53;;;;;;;8.86;nan;99699.88;5072404;28;20056;-68
2024/01/06 04:59:03;;;;;;;210.52;75.82;;;;;;;8.83;nan;99694.91;5093493;28;20705;-68
2024/01/06 05:01:33;;;;;;;209.80;75.35;;;;;;;8.68;nan;99697.28;5088862;28;20356;-67
2024/01/06 05:04:03;;;;;;;215.82;76.60;;;;;;;8.74;nan;99688.75;5086592;28;20383;-68
2024/01/06 05:06:32;;;;;;;224.98;77.13;;;;;;;8.49;nan;99692.25;5092182;28;20078;-68
2024/01/06 05:09:02;;;;;;;219.70;80.10;;;;;;;8.59;nan;99692.94;5090478;28;20059;-68
2024/01/06 05:11:31;;;;;;;214.65;74.43;;;;;;;8.52;nan;99691.91;5090437;28;20063;-69
2024/01/06 05:14:01;;;;;;;203.55;74.68;;;;;;;8.80;nan;99685.50;5075370;28;20112;-67
2024/01/06 05:16:30;;;;;;;197.25;74.40;;;;;;;8.88;nan;99695.28;5091108;28;20551;-67
2024/01/06 05:18:59;;;;;;;216.80;80.10;;;;;;;8.82;nan;99691.44;5088738;28;20052;-66
2024/01/06 05:21:30;;;;;;;226.20;76.57;;;;;;;8.94;nan;99689.34;5080801;28;20044;-67
2024/01/06 05:24:00;;;;;;;247.77;77.90;;;;;;;8.90;nan;99694.13;5095848;28;20051;-67
2024/01/06 05:26:29;;;;;;;207.70;73.90;;;;;;;8.94;nan;99687.53;5062060;28;20166;-67
2024/01/06 05:28:59;;;;;;;196.23;72.53;;;;;;;9.13;nan;99689.09;5096140;28;20104;-68
2024/01/06 05:31:28;;;;;;;206.43;74.30;;;;;;;8.88;nan;99682.91;5088126;28;20052;-66
2024/01/06 05:33:58;;;;;;;206.13;73.57;;;;;;;8.76;nan;99680.69;5089456;28;20094;-66
2024/01/06 05:36:27;;;;;;;206.63;73.40;;;;;;;8.79;nan;99678.56;5091591;28;20051;-66
2024/01/06 05:38:56;;;;;;;197.73;74.38;;;;;;;8.84;nan;99689.47;5095801;28;20040;-66
2024/01/06 05:41:26;;;;;;;212.38;75.05;;;;;;;8.93;nan;99682.44;5078358;28;20052;-66
2024/01/06 05:43:56;;;;;;;213.98;75.95;;;;;;;8.81;nan;99683.66;5087695;28;20372;-66
2024/01/06 05:46:25;;;;;;;228.75;78.75;;;;;;;8.94;nan;99679.59;5085273;28;20133;-67
2024/01/06 05:48:56;;;;;;;207.07;75.13;;;;;;;9.04;nan;99679.50;5073526;28;20056;-65
2024/01/06 05:51:25;;;;;;;219.75;78.22;;;;;;;8.95;nan;99680.44;5087533;28;20040;-67
2024/01/06 05:53:55;;;;;;;230.05;78.90;;;;;;;8.91;nan;99669.38;5086221;28;20063;-68
2024/01/06 05:56:25;;;;;;;227.52;80.78;;;;;;;9.18;nan;99662.22;5073972;28;20055;-67
2024/01/06 05:58:56;;;;;;;216.75;77.38;;;;;;;9.21;nan;99662.72;5067169;28;20127;-67
2024/01/06 06:01:25;;;;;;;230.98;85.60;;;;;;;9.14;nan;99663.50;5062812;28;20045;-67
2024/01/06 06:03:54;;;;;;;223.23;81.75;;;;;;;9.10;nan;99656.91;5063530;28;20053;-65
2024/01/06 06:06:25;;;;;;;234.98;82.05;;;;;;;9.19;nan;99655.94;5063857;28;20535;-68
2024/01/06 06:08:55;;;;;;;243.43;83.65;;;;;;;9.28;nan;99644.41;5046108;28;20075;-68
2024/01/06 06:11:24;;;;;;;235.52;83.47;;;;;;;9.39;nan;99646.72;5064314;28;20048;-67
2024/01/06 06:13:54;;;;;;;220.02;84.25;;;;;;;9.34;nan;99638.44;5065037;28;20044;-69
2024/01/06 06:16:23;;;;;;;240.93;82.18;;;;;;;9.43;nan;99635.66;5063713;28;20044;-70
2024/01/06 06:18:53;;;;;;;228.65;83.00;;;;;;;9.42;nan;99627.94;5064581;28;20127;-70
2024/01/06 06:21:23;;;;;;;230.60;84.88;;;;;;;9.42;nan;99635.84;5065028;28;20053;-70
2024/01/06 06:23:53;;;;;;;225.63;84.55;;;;;;;9.43;nan;99622.44;5064678;28;20056;-68
2024/01/06 06:26:23;;;;;;;229.50;86.00;;;;;;;9.39;nan;99625.59;5058244;28;20068;-69
2024/01/06 06:28:53;;;;;;;218.25;79.63;;;;;;;9.55;nan;99620.34;5059348;28;20056;-69
2024/01/06 06:31:22;;;;;;;223.90;83.05;;;;;;;9.39;nan;99610.56;5060410;28;20075;-69
2024/01/06 06:33:52;;;;;;;216.15;81.07;;;;;;;9.58;nan;99603.31;5061014;28;20077;-68
2024/01/06 06:36:21;;;;;;;212.55;76.80;;;;;;;9.67;nan;99610.25;5060991;28;20436;-66
2024/01/06 06:38:51;;;;;;;226.93;82.18;;;;;;;9.95;nan;99613.41;5061888;28;20653;-67
2024/01/06 06:41:21;;;;;;;220.20;82.85;;;;;;;9.90;nan;99611.28;5058432;28;20656;-65
2024/01/06 06:43:50;;;;;;;224.90;80.70;;;;;;;9.77;nan;99609.13;5062795;28;20052;-68
2024/01/06 06:46:19;;;;;;;219.95;83.88;;;;;;;9.72;nan;99602.66;5060479;28;20044;-68
2024/01/06 06:48:50;;;;;;;197.35;76.10;;;;;;;9.83;nan;99599.66;5064269;28;20133;-69
2024/01/06 06:51:24;;;;;;;207.60;81.80;;;;;;;9.82;nan;99596.19;5042396;28;20099;-69
2024/01/06 06:53:54;;;;;;;211.98;81.85;;;;;;;10.06;nan;99594.53;5047043;28;20048;-68
2024/01/06 06:56:24;;;;;;;217.20;88.65;;;;;;;9.87;nan;99585.94;5057009;28;20060;-70
2024/01/06 06:58:53;;;;;;;216.68;85.25;;;;;;;10.16;nan;99592.59;5059396;28;20063;-69
2024/01/06 07:01:23;;;;;;;223.20;88.32;;;;;;;10.13;nan;99590.25;5056100;28;20056;-70
2024/01/06 07:03:53;;;;;;;221.30;84.28;;;;;;;10.22;nan;99579.47;5064062;28;20063;-71
2024/01/06 07:06:23;;;;;;;220.25;86.13;;;;;;;10.14;nan;99578.63;5060650;28;20543;-72
2024/01/06 07:08:53;;;;;;;248.10;96.60;;;;;;;10.22;nan;99576.03;5056654;28;20045;-70
2024/01/06 07:11:23;;;;;;;262.88;103.82;;;;;;;10.48;nan;99571.34;5062479;28;20575;-68
2024/01/06 07:13:53;;;;;;;267.70;105.30;;;;;;;10.56;nan;99573.94;5058858;28;20056;-70
2024/01/06 07:16:23;;;;;;;285.88;110.93;;;;;;;10.51;nan;99570.16;5059915;28;20052;-71
2024/01/06 07:18:52;;;;;;;368.13;141.68;;;;;;;10.58;nan;99566.66;5058541;28;20049;-72
2024/01/06 07:21:23;;;;;;;380.65;142.45;;;;;;;10.57;nan;99565.00;5058114;28;20048;-68
2024/01/06 07:23:52;;;;;;;405.98;155.85;;;;;;;10.50;nan;99557.91;5062591;28;20372;-70
2024/01/06 07:26:22;;;;;;;411.90;156.15;;;;;;;10.43;nan;99557.78;5058256;28;20057;-69
2024/01/06 07:28:51;;;;;;;392.98;156.73;;;;;;;10.49;nan;99545.69;5062481;28;20056;-69
2024/01/06 07:31:21;;;;;;;394.83;154.20;;;;;;;10.31;nan;99541.41;5058816;28;20605;-69
2024/01/06 07:33:50;;;;;;;408.48;154.55;;;;;;;10.52;nan;99540.84;5053009;28;20062;-69
2024/01/06 07:36:21;;;;;;;413.48;163.27;;;;;;;10.66;nan;99540.16;5056922;28;20049;-71
2024/01/06 07:38:52;;;;;;;432.27;165.52;;;;;;;10.68;nan;99529.34;5060421;28;20048;-70
2024/01/06 07:41:22;;;;;;;412.77;164.13;;;;;;;10.55;nan;99534.38;5060379;28;20060;-70
2024/01/06 07:43:51;;;;;;;431.95;170.00;;;;;;;10.75;nan;99535.63;5060159;28;20495;-70
2024/01/06 07:46:20;;;;;;;431.75;170.70;;;;;;;10.72;nan;99520.91;5053667;28;20143;-70
2024/01/06 07:48:50;;;;;;;428.00;161.65;;;;;;;10.74;nan;99528.69;5053679;28;20049;-70
2024/01/06 07:51:20;;;;;;;409.92;154.00;;;;;;;10.57;nan;99522.63;5061698;28;20059;-69
2024/01/06 07:53:49;;;;;;;406.60;148.55;;;;;;;10.44;nan;99514.41;5051302;28;20138;-71
2024/01/06 07:56:19;;;;;;;396.73;150.27;;;;;;;10.42;nan;99518.22;5054176;28;20111;-70
2024/01/06 07:58:48;;;;;;;384.50;142.38;;;;;;;10.54;nan;99514.19;5057691;28;20126;-71
2024/01/06 08:01:17;;;;;;;364.02;139.70;;;;;;;10.18;nan;99519.09;5062854;28;20071;-70
2024/01/06 08:03:47;;;;;;;346.80;133.68;;;;;;;10.19;nan;99505.72;5065276;28;20044;-68
2024/01/06 08:06:16;;;;;;;361.17;135.18;;;;;;;10.38;nan;99503.66;5067811;28;20171;-69
2024/01/06 08:08:46;;;;;;;335.85;128.32;;;;;;;10.40;nan;99507.78;5063945;28;20060;-70
2024/01/06 08:11:15;;;;;;;338.40;126.47;;;;;;;10.38;nan;99503.66;5031942;28;20048;-69
2024/01/06 08:13:45;;;;;;;343.23;126.82;;;;;;;10.51;nan;99502.13;5063930;28;20106;-69
2024/01/06 08:16:14;;;;;;;335.42;124.07;;;;;;;10.61;nan;99501.91;5063201;28;20109;-71
2024/01/06 08:18:44;;;;;;;324.08;118.32;;;;;;;10.67;nan;99494.09;5066961;28;20118;-68
2024/01/06 08:21:14;;;;;;;310.23;116.63;;;;;;;10.64;nan;99496.28;5061111;28;20052;-69
2024/01/06 08:23:44;;;;;;;329.98;116.30;;;;;;;10.55;nan;99494.66;5061879;28;20079;-69
2024/01/06 08:26:13;;;;;;;326.38;116.22;;;;;;;10.60;nan;99493.16;5063017;28;20109;-68
2024/01/06 08:28:43;;;;;;;314.75;113.38;;;;;;;10.63;nan;99495.44;5062228;28;20109;-69
2024/01/06 08:31:12;;;;;;;298.02;111.35;;;;;;;10.66;nan;99481.88;5061881;28;20127;-69
2024/01/06 08:33:42;;;;;;;318.83;113.32;;;;;;;10.53;nan;99483.41;5059937;28;20137;-70
2024/01/06 08:36:12;;;;;;;284.10;109.25;;;;;;;10.78;nan;99479.63;5048850;28;20097;-69
2024/01/06 08:38:42;;;;;;;323.25;109.15;;;;;;;10.68;nan;99479.03;5065026;28;20543;-68
2024/01/06 08:41:12;;;;;;;288.15;107.70;;;;;;;10.54;nan;99477.09;5065609;28;20101;-66
2024/01/06 08:43:41;;;;;;;291.77;107.22;;;;;;;10.73;nan;99479.34;5059752;28;20131;-68
2024/01/06 08:46:11;;;;;;;296.88;102.45;;;;;;;10.68;nan;99476.38;5050832;28;20055;-68
2024/01/06 08:48:41;;;;;;;278.77;104.78;;;;;;;10.62;nan;99471.78;5063712;28;20044;-71
2024/01/06 08:51:11;;;;;;;285.88;100.90;;;;;;;10.66;nan;99476.56;5063574;28;20083;-70
2024/01/06 08:53:40;;;;;;;272.30;98.07;;;;;;;10.78;nan;99474.34;5063895;28;20668;-70
2024/01/06 08:56:10;;;;;;;267.27;99.90;;;;;;;10.69;nan;99467.44;5062436;28;20044;-70
2024/01/06 08:58:40;;;;;;;282.00;99.75;;;;;;;10.68;nan;99469.25;5081915;28;20080;-68
2024/01/06 09:01:09;;;;;;;282.17;97.85;;;;;;;10.66;nan;99465.97;5091988;27;20052;-69
2024/01/06 09:03:39;;;;;;;271.75;96.25;;;;;;;10.26;nan;99466.16;5089131;28;20044;-70
2024/01/06 09:06:08;;;;;;;271.20;96.03;;;;;;;10.06;nan;99459.56;5085069;28;20055;-69
2024/01/06 09:08:37;;;;;;;268.08;93.00;;;;;;;10.28;nan;99464.16;5085300;28;20800;-70
2024/01/06 09:11:07;;;;;;;255.95;94.20;;;;;;;10.27;nan;99462.50;5087292;28;20072;-70
2024/01/06 09:13:36;;;;;;;270.08;94.00;;;;;;;10.43;nan;99462.44;5084295;28;20047;-69
2024/01/06 09:16:07;;;;;;;295.50;96.72;;;;;;;10.53;nan;99455.13;5079397;28;20048;-69
2024/01/06 09:18:37;;;;;;;270.77;100.07;;;;;;;10.56;nan;99462.72;5084744;28;20047;-70
2024/01/06 09:21:07;;;;;;;263.65;99.00;;;;;;;10.26;nan;99453.75;5076978;28;20048;-71
2024/01/06 09:23:36;;;;;;;264.00;101.15;;;;;;;10.31;nan;99451.38;5078997;28;20925;-68
2024/01/06 09:26:05;;;;;;;264.02;99.45;;;;;;;10.45;nan;99446.34;5083450;28;20043;-68
2024/01/06 09:28:35;;;;;;;276.90;102.05;;;;;;;10.36;nan;99435.00;5081518;28;20105;-68
2024/01/06 09:31:04;;;;;;;257.88;98.22;;;;;;;10.26;nan;99448.47;5086343;28;20527;-70
2024/01/06 09:33:34;;;;;;;279.70;103.93;;;;;;;10.49;nan;99437.91;5085670;28;20043;-69
2024/01/06 09:36:04;;;;;;;270.35;101.38;;;;;;;10.56;nan;99443.34;5082121;28;20486;-72
2024/01/06 09:38:34;;;;;;;276.20;105.88;;;;;;;10.68;nan;99440.13;5083210;28;20044;-66
2024/01/06 09:41:03;;;;;;;285.40;104.38;;;;;;;10.80;nan;99444.00;5082525;28;20060;-69
2024/01/06 09:43:33;;;;;;;263.05;99.95;;;;;;;10.91;nan;99447.25;5082439;28;20360;-69
2024/01/06 09:46:26;;;;;;;260.40;97.35;;;;;;;10.97;nan;99438.63;5085539;28;20051;-68
2024/01/06 09:48:58;;;;;;;251.85;99.25;;;;;;;10.77;nan;99441.72;5084604;28;20066;-69
2024/01/06 09:51:28;;;;;;;260.77;100.35;;;;;;;10.24;nan;99439.84;5080743;28;20153;-69
2024/01/06 09:54:00;;;;;;;255.27;98.32;;;;;;;10.51;nan;99438.56;5086474;28;20046;-71
2024/01/06 09:56:33;;;;;;;241.57;97.27;;;;;;;10.66;nan;99436.84;5084283;28;20055;-71
2024/01/06 09:59:02;;;;;;;249.05;97.72;;;;;;;10.81;nan;99440.38;5082424;28;20064;-68
2024/01/06 10:01:32;;;;;;;250.18;96.93;;;;;;;10.95;nan;99440.59;5083582;28;20113;-70
2024/01/06 10:04:01;;;;;;;261.20;101.60;;;;;;;11.06;nan;99432.25;5086866;28;20143;-72
2024/01/06 10:06:30;;;;;;;256.55;101.68;;;;;;;11.00;nan;99433.78;5092673;28;20055;-71
2024/01/06 10:09:00;;;;;;;251.65;99.30;;;;;;;11.01;nan;99434.59;5085817;28;20078;-71
2024/01/06 10:11:30;;;;;;;253.23;95.72;;;;;;;10.86;nan;99426.59;5081927;28;20048;-71
2024/01/06 10:13:59;;;;;;;249.63;94.60;;;;;;;10.90;nan;99424.41;5075244;28;20661;-72
2024/01/06 10:16:29;;;;;;;257.23;91.68;;;;;;;10.83;nan;99419.00;5085423;28;20503;-72
2024/01/06 10:18:58;;;;;;;262.98;92.70;;;;;;;10.88;nan;99421.94;5084540;28;20384;-69
2024/01/06 10:21:28;;;;;;;247.95;92.13;;;;;;;10.87;nan;99419.47;5084377;28;20044;-69
2024/01/06 10:23:58;;;;;;;251.98;95.72;;;;;;;10.82;nan;99415.53;5083710;28;20480;-70
2024/01/06 10:26:29;;;;;;;255.02;94.90;;;;;;;10.85;nan;99419.63;5084303;28;20062;-71
2024/01/06 10:28:59;;;;;;;267.10;99.00;;;;;;;10.74;nan;99412.94;5082749;28;20151;-69
2024/01/06 10:31:30;;;;;;;276.15;99.88;;;;;;;10.91;nan;99416.28;5083033;28;20054;-69
2024/01/06 10:34:00;;;;;;;278.88;102.70;;;;;;;10.85;nan;99419.63;5088610;28;20048;-69
2024/01/06 10:36:31;;;;;;;265.92;103.63;;;;;;;10.79;nan;99417.72;5084344;28;20048;-69
2024/01/06 10:39:01;;;;;;;279.23;105.00;;;;;;;10.78;nan;99416.88;5085642;28;20086;-70
2024/01/06 10:41:32;;;;;;;259.33;99.97;;;;;;;10.73;nan;99423.69;5082640;28;20052;-69
2024/01/06 10:44:03;;;;;;;270.10;99.15;;;;;;;10.71;nan;99417.75;5086874;28;20170;-69
2024/01/06 10:46:34;;;;;;;271.38;97.53;;;;;;;10.67;nan;99417.28;5084907;28;20129;-68
2024/01/06 10:49:10;;;;;;;266.92;103.28;;;;;;;10.64;nan;99414.97;5085937;28;20380;-69
2024/01/06 10:51:40;;;;;;;267.27;99.90;;;;;;;10.62;nan;99419.63;5087968;27;20059;-68
2024/01/06 10:54:11;;;;;;;259.80;98.13;;;;;;;10.69;nan;99414.47;5085466;28;20167;-69
2024/01/06 10:56:43;;;;;;;258.67;99.18;;;;;;;10.69;nan;99411.81;5082995;28;20553;-69
2024/01/06 10:59:15;;;;;;;291.48;107.72;;;;;;;10.61;nan;99404.75;5081167;28;20048;-67
2024/01/06 11:01:45;;;;;;;293.90;107.10;;;;;;;10.60;nan;99402.25;5085270;28;20044;-68
2024/01/06 11:04:16;;;;;;;283.15;105.63;;;;;;;10.61;nan;99401.28;5084799;28;20105;-70
2024/01/06 11:06:46;;;;;;;285.88;108.85;;;;;;;10.65;nan;99402.56;5084499;28;20048;-71
2024/01/06 11:09:23;;;;;;;273.15;105.65;;;;;;;10.58;nan;99407.72;5085472;28;20140;-70
2024/01/06 11:11:53;;;;;;;264.63;103.45;;;;;;;10.59;nan;99398.78;5084948;28;20051;-70
2024/01/06 11:14:33;;;;;;;275.77;107.13;;;;;;;10.59;nan;99400.59;5083045;28;20051;-68
2024/01/06 11:17:02;;;;;;;282.27;108.00;;;;;;;10.48;nan;99393.06;5082680;28;20124;-70
2024/01/06 11:19:34;;;;;;;273.88;105.32;;;;;;;10.46;nan;99401.19;5084646;28;20167;-71
2024/01/06 11:22:21;;;;;;;260.85;102.00;;;;;;;10.59;nan;99408.56;5086050;28;20039;-71
2024/01/06 11:24:53;;;;;;;284.15;112.28;;;;;;;10.56;nan;99401.78;5086342;28;20071;-70
2024/01/06 11:27:28;;;;;;;289.65;109.05;;;;;;;10.74;nan;99406.81;5084368;28;20109;-70
2024/01/06 11:30:06;;;;;;;289.52;109.88;;;;;;;10.66;nan;99407.69;5083355;28;20193;-70
2024/01/06 11:32:41;;;;;;;265.70;106.80;;;;;;;10.75;nan;99406.59;5081312;28;20616;-70
2024/01/06 11:35:17;;;;;;;267.67;102.50;;;;;;;10.67;nan;99413.78;5082168;28;20055;-70
2024/01/06 11:37:47;;;;;;;265.92;105.38;;;;;;;10.51;nan;99409.44;5082621;28;20048;-70
2024/01/06 11:40:32;;;;;;;266.71;104.45;;;;;;;10.48;nan;99419.56;5014188;28;10000860;-70